Time;durP1;ratioP1;P1;durP2;ratioP2;P2;SDS_P1;SDS_P2;PMS_P1;PMS_P2;Temp;Humidity;BMP_temperature;BMP_pressure;BME280_temperature;BME280_humidity;BME280_pressure;Samples;Min_cycle;Max_cycle;Signal;HPM_P1;HPM_P2
2023/03/04 00:01:45;;;;;;;3.15;1.23;;;7.50;72.90;;;;;;5103764;28;20055;-67
2023/03/04 00:04:10;;;;;;;2.17;0.90;;;7.40;72.90;;;;;;5103170;28;20035;-67
2023/03/04 00:06:36;;;;;;;2.85;1.10;;;7.40;73.00;;;;;;5103633;27;20032;-67
2023/03/04 00:09:03;;;;;;;1.05;0.80;;;7.40;73.00;;;;;;5101804;28;20036;-67
2023/03/04 00:11:29;;;;;;;2.17;1.02;;;7.40;73.00;;;;;;5101614;27;20024;-67
2023/03/04 00:13:55;;;;;;;3.08;0.90;;;7.30;73.00;;;;;;5107617;28;20024;-68
2023/03/04 00:16:21;;;;;;;2.28;0.85;;;7.30;73.10;;;;;;5098428;28;20024;-68
2023/03/04 00:18:47;;;;;;;1.27;0.75;;;7.30;73.60;;;;;;5103169;27;20474;-68
2023/03/04 00:21:13;;;;;;;2.88;1.00;;;7.30;73.10;;;;;;5102230;28;20238;-68
2023/03/04 00:23:40;;;;;;;3.10;1.00;;;7.30;73.20;;;;;;5098403;28;20024;-69
2023/03/04 00:26:08;;;;;;;3.42;1.10;;;7.30;73.10;;;;;;5103334;27;20024;-68
2023/03/04 00:28:44;;;;;;;5.03;1.25;;;7.30;72.90;;;;;;5103547;27;20569;-68
2023/03/04 00:31:10;;;;;;;4.47;1.33;;;7.20;73.10;;;;;;5095485;28;20027;-68
2023/03/04 00:33:36;;;;;;;3.97;1.00;;;7.20;73.10;;;;;;5100167;28;20028;-68
2023/03/04 00:36:02;;;;;;;3.30;0.90;;;7.20;73.20;;;;;;5098208;27;20067;-68
2023/03/04 00:38:28;;;;;;;8.15;1.70;;;7.20;73.30;;;;;;5099946;27;20099;-68
2023/03/04 00:40:53;;;;;;;3.00;1.15;;;7.20;73.20;;;;;;5095664;28;20102;-68
2023/03/04 00:43:20;;;;;;;2.85;0.80;;;7.30;73.20;;;;;;5094803;28;20052;-68
2023/03/04 00:45:45;;;;;;;2.40;0.75;;;7.30;73.10;;;;;;5099177;27;20490;-68
2023/03/04 00:48:11;;;;;;;2.50;0.80;;;7.30;73.10;;;;;;5101974;27;20070;-67
2023/03/04 00:50:37;;;;;;;2.38;1.00;;;7.30;73.10;;;;;;5100601;28;20069;-68
2023/03/04 00:53:03;;;;;;;0.93;0.88;;;7.30;73.20;;;;;;5098104;28;20036;-68
2023/03/04 00:55:29;;;;;;;1.08;0.80;;;7.40;73.20;;;;;;5101582;28;20051;-68
2023/03/04 00:57:55;;;;;;;2.13;0.98;;;7.40;73.30;;;;;;5106308;27;20032;-68
2023/03/04 01:00:20;;;;;;;1.17;0.75;;;7.40;73.20;;;;;;5097908;28;20032;-68
2023/03/04 01:02:46;;;;;;;2.40;1.33;;;7.40;73.30;;;;;;5097680;28;20028;-68
2023/03/04 01:05:12;;;;;;;2.05;0.98;;;7.40;73.20;;;;;;5098109;27;20051;-68
2023/03/04 01:07:37;;;;;;;2.28;1.20;;;7.40;73.20;;;;;;5092722;28;20024;-68
2023/03/04 01:10:05;;;;;;;1.77;0.80;;;7.40;73.30;;;;;;5098567;28;20054;-68
2023/03/04 01:12:30;;;;;;;0.98;0.73;;;7.40;73.30;;;;;;5097311;27;20319;-68
2023/03/04 01:14:56;;;;;;;1.55;0.80;;;7.40;73.30;;;;;;5096444;28;20074;-68
2023/03/04 01:17:22;;;;;;;1.40;0.88;;;7.50;73.30;;;;;;5104511;28;20521;-68
2023/03/04 01:19:47;;;;;;;2.22;1.00;;;7.50;73.30;;;;;;5102635;28;20095;-68
2023/03/04 01:22:15;;;;;;;4.78;0.88;;;7.40;73.20;;;;;;5097120;28;20028;-68
2023/03/04 01:24:41;;;;;;;1.40;0.82;;;7.40;73.40;;;;;;5103111;28;20381;-68
2023/03/04 01:27:07;;;;;;;1.92;0.90;;;7.40;73.40;;;;;;5104161;28;20077;-68
2023/03/04 01:29:33;;;;;;;3.78;1.05;;;7.40;73.40;;;;;;5095651;28;20028;-68
2023/03/04 01:31:58;;;;;;;1.83;0.90;;;7.40;73.40;;;;;;5104101;28;20031;-68
2023/03/04 01:34:24;;;;;;;2.78;1.02;;;7.40;73.40;;;;;;5101850;27;20020;-68
2023/03/04 01:36:49;;;;;;;2.05;0.80;;;7.30;73.50;;;;;;5100945;27;20036;-68
2023/03/04 01:39:15;;;;;;;1.45;0.70;;;7.30;73.50;;;;;;5113738;27;20042;-68
2023/03/04 01:41:41;;;;;;;2.47;0.95;;;7.20;73.60;;;;;;5103881;27;20394;-68
2023/03/04 01:44:09;;;;;;;1.67;0.88;;;7.20;73.70;;;;;;5105097;27;20512;-68
2023/03/04 01:46:36;;;;;;;2.53;1.20;;;7.20;73.80;;;;;;5112571;27;20077;-68
2023/03/04 01:49:02;;;;;;;1.00;0.60;;;7.20;73.80;;;;;;5102762;28;20031;-68
2023/03/04 01:51:27;;;;;;;1.55;0.80;;;7.20;73.90;;;;;;5103433;28;20857;-68
2023/03/04 01:53:53;;;;;;;3.55;0.90;;;7.20;73.90;;;;;;5098962;28;20030;-68
2023/03/04 01:56:34;;;;;;;3.55;1.10;;;7.20;73.80;;;;;;5117059;27;20039;-68
2023/03/04 01:59:05;;;;;;;1.00;0.63;;;7.20;73.80;;;;;;5106164;28;20046;-68
2023/03/04 02:01:31;;;;;;;1.83;0.90;;;7.20;73.70;;;;;;5104174;27;20493;-68
2023/03/04 02:03:57;;;;;;;2.72;1.10;;;7.20;73.90;;;;;;5101358;28;20111;-68
2023/03/04 02:06:22;;;;;;;3.33;0.90;;;7.20;74.00;;;;;;5105062;27;20040;-68
2023/03/04 02:08:48;;;;;;;2.28;1.00;;;7.20;74.00;;;;;;5103490;28;20027;-68
2023/03/04 02:11:13;;;;;;;1.92;0.82;;;7.20;74.00;;;;;;5099495;28;20107;-68
2023/03/04 02:13:39;;;;;;;1.58;0.70;;;7.20;74.00;;;;;;5103537;27;20028;-68
2023/03/04 02:16:05;;;;;;;4.07;0.82;;;7.20;74.00;;;;;;5105445;27;20107;-68
2023/03/04 02:18:30;;;;;;;2.33;0.90;;;7.20;74.00;;;;;;5098476;28;20020;-68
2023/03/04 02:21:14;;;;;;;2.50;0.93;;;7.20;74.00;;;;;;5105489;28;20035;-68
2023/03/04 02:23:46;;;;;;;5.70;1.00;;;7.20;73.90;;;;;;5103291;28;20739;-68
2023/03/04 02:26:17;;;;;;;1.58;0.70;;;7.30;73.90;;;;;;5109679;27;20027;-68
2023/03/04 02:28:43;;;;;;;1.35;1.10;;;7.20;73.90;;;;;;5106916;27;20521;-68
2023/03/04 02:31:30;;;;;;;3.65;0.90;;;7.20;73.90;;;;;;5097203;27;20072;-68
2023/03/04 02:33:59;;;;;;;2.30;1.00;;;7.20;73.90;;;;;;5103862;27;20032;-68
2023/03/04 02:36:25;;;;;;;3.45;1.02;;;7.20;73.90;;;;;;5100522;27;20035;-68
2023/03/04 02:38:52;;;;;;;2.50;0.90;;;7.10;73.90;;;;;;5097653;28;20030;-68
2023/03/04 02:41:23;;;;;;;3.10;1.05;;;7.10;73.90;;;;;;5097944;27;20020;-69
2023/03/04 02:43:52;;;;;;;4.97;1.20;;;7.10;74.00;;;;;;5105286;27;20592;-69
2023/03/04 02:46:18;;;;;;;4.53;1.17;;;7.10;74.00;;;;;;5106832;27;20359;-68
2023/03/04 02:48:43;;;;;;;3.63;1.20;;;7.10;73.90;;;;;;5104057;27;20027;-68
2023/03/04 02:51:09;;;;;;;3.38;0.93;;;7.10;73.90;;;;;;5099685;27;20020;-69
2023/03/04 02:53:34;;;;;;;5.82;1.17;;;7.00;73.80;;;;;;5109096;27;20443;-68
2023/03/04 02:56:00;;;;;;;2.28;0.90;;;7.00;73.80;;;;;;5097821;28;20534;-68
2023/03/04 02:58:25;;;;;;;2.00;0.90;;;7.00;73.70;;;;;;5103866;28;20028;-68
2023/03/04 03:00:51;;;;;;;1.85;0.88;;;7.10;73.70;;;;;;5095896;27;20036;-69
2023/03/04 03:03:17;;;;;;;3.42;0.80;;;7.10;73.70;;;;;;5106579;27;20034;-69
2023/03/04 03:05:42;;;;;;;3.92;1.02;;;7.10;73.60;;;;;;5100637;28;20024;-68
2023/03/04 03:08:08;;;;;;;3.00;0.80;;;7.10;73.60;;;;;;5101053;27;20024;-68
2023/03/04 03:10:34;;;;;;;3.10;1.02;;;7.10;73.60;;;;;;5103531;27;20436;-69
2023/03/04 03:13:00;;;;;;;4.07;1.17;;;7.10;73.60;;;;;;5101959;27;20031;-68
2023/03/04 03:15:25;;;;;;;1.50;0.80;;;7.10;73.50;;;;;;5107371;27;20027;-68
2023/03/04 03:17:51;;;;;;;3.72;0.90;;;7.10;73.50;;;;;;5100308;27;20030;-68
2023/03/04 03:20:17;;;;;;;2.63;0.75;;;7.10;73.60;;;;;;5102951;27;20048;-68
2023/03/04 03:22:43;;;;;;;1.88;0.65;;;7.20;73.60;;;;;;5107177;27;20077;-68
2023/03/04 03:25:09;;;;;;;1.55;0.88;;;7.10;73.60;;;;;;5101442;27;20428;-68
2023/03/04 03:27:35;;;;;;;1.42;0.80;;;7.10;73.70;;;;;;5101729;28;20059;-68
2023/03/04 03:30:01;;;;;;;2.88;0.80;;;7.20;73.80;;;;;;5098730;28;20055;-69
2023/03/04 03:32:26;;;;;;;3.40;0.98;;;7.20;73.70;;;;;;5099895;27;20035;-69
2023/03/04 03:34:52;;;;;;;0.82;0.70;;;7.20;73.70;;;;;;5104788;27;20030;-69
2023/03/04 03:37:17;;;;;;;1.20;0.70;;;7.20;73.70;;;;;;5099430;27;20035;-69
2023/03/04 03:39:43;;;;;;;1.67;0.80;;;7.20;73.60;;;;;;5105245;27;20030;-69
2023/03/04 03:42:09;;;;;;;2.70;0.80;;;7.20;73.60;;;;;;5099829;27;20103;-68
2023/03/04 03:44:35;;;;;;;4.97;1.05;;;7.20;73.70;;;;;;5098592;27;20020;-69
2023/03/04 03:47:00;;;;;;;1.92;0.88;;;7.20;73.80;;;;;;5099366;27;20028;-69
2023/03/04 03:49:26;;;;;;;1.80;0.75;;;7.20;73.80;;;;;;5105949;27;20506;-69
2023/03/04 03:51:51;;;;;;;2.55;0.88;;;7.10;73.80;;;;;;5102449;27;20015;-69
2023/03/04 03:54:17;;;;;;;2.33;0.88;;;7.10;74.00;;;;;;5109621;27;20098;-69
2023/03/04 03:56:43;;;;;;;3.25;0.70;;;7.10;74.10;;;;;;5101405;28;20035;-69
2023/03/04 03:59:08;;;;;;;1.33;0.75;;;7.10;74.10;;;;;;5106167;27;20020;-69
2023/03/04 04:01:34;;;;;;;4.80;0.90;;;7.10;74.10;;;;;;5098997;27;20059;-68
2023/03/04 04:04:00;;;;;;;2.38;0.80;;;7.10;74.00;;;;;;5098843;27;20114;-68
2023/03/04 04:06:25;;;;;;;1.80;0.70;;;7.10;73.90;;;;;;5099440;27;20028;-69
2023/03/04 04:08:51;;;;;;;2.15;0.80;;;7.10;74.10;;;;;;5097270;28;20481;-69
2023/03/04 04:11:18;;;;;;;2.83;0.77;;;7.10;74.00;;;;;;5107359;27;20056;-69
2023/03/04 04:13:43;;;;;;;3.58;0.98;;;7.10;74.10;;;;;;5096525;28;20098;-68
2023/03/04 04:16:09;;;;;;;3.88;0.90;;;7.10;74.10;;;;;;5101727;28;20096;-68
2023/03/04 04:18:35;;;;;;;3.35;0.80;;;7.10;74.20;;;;;;5104023;28;20032;-68
2023/03/04 04:21:01;;;;;;;2.92;0.93;;;7.10;74.20;;;;;;5108124;27;20039;-68
2023/03/04 04:23:27;;;;;;;1.77;0.77;;;7.10;74.30;;;;;;5098511;28;20023;-68
2023/03/04 04:25:56;;;;;;;2.60;0.90;;;7.10;74.20;;;;;;5096590;28;20030;-68
2023/03/04 04:28:23;;;;;;;1.63;0.70;;;7.20;74.20;;;;;;5093285;28;21515;-69
2023/03/04 04:30:48;;;;;;;2.88;0.80;;;7.20;74.20;;;;;;5096704;27;20028;-68
2023/03/04 04:33:14;;;;;;;1.17;0.60;;;7.20;74.20;;;;;;5097911;27;20023;-68
2023/03/04 04:35:40;;;;;;;3.88;0.90;;;7.20;74.20;;;;;;5096444;28;20030;-69
2023/03/04 04:38:06;;;;;;;2.47;0.77;;;7.20;74.80;;;;;;5104903;27;20027;-69
2023/03/04 04:40:32;;;;;;;2.25;0.68;;;7.20;74.20;;;;;;5099629;27;20077;-68
2023/03/04 04:42:58;;;;;;;3.10;0.75;;;7.20;74.20;;;;;;5098734;28;20040;-68
2023/03/04 04:45:23;;;;;;;2.05;0.98;;;7.20;74.20;;;;;;5100182;28;20016;-68
2023/03/04 04:47:50;;;;;;;1.67;0.80;;;7.20;74.30;;;;;;5102170;28;20020;-68
2023/03/04 04:50:16;;;;;;;0.93;0.75;;;7.20;74.40;;;;;;5107604;27;20038;-68
2023/03/04 04:52:41;;;;;;;2.33;0.75;;;7.10;74.40;;;;;;5100102;28;20028;-68
2023/03/04 04:55:07;;;;;;;2.17;0.63;;;7.10;74.40;;;;;;5103175;28;20023;-68
2023/03/04 04:57:33;;;;;;;2.08;0.50;;;7.20;74.60;;;;;;5098432;28;20114;-68
2023/03/04 04:59:59;;;;;;;0.73;0.68;;;7.20;74.50;;;;;;5098622;28;20028;-68
2023/03/04 05:02:24;;;;;;;2.13;0.70;;;7.20;74.60;;;;;;5094104;28;20054;-68
2023/03/04 05:04:50;;;;;;;2.17;0.63;;;7.20;74.50;;;;;;5101493;27;20028;-68
2023/03/04 05:07:15;;;;;;;1.67;0.80;;;7.20;74.60;;;;;;5097940;27;20023;-68
2023/03/04 05:09:41;;;;;;;3.90;0.80;;;7.20;74.60;;;;;;5101461;28;20103;-68
2023/03/04 05:12:07;;;;;;;3.40;0.70;;;7.10;74.70;;;;;;5101255;28;20052;-68
2023/03/04 05:14:32;;;;;;;1.17;0.75;;;7.10;74.80;;;;;;5098192;28;20080;-69
2023/03/04 05:16:58;;;;;;;2.25;0.73;;;7.10;74.90;;;;;;5103095;28;20130;-69
2023/03/04 05:19:23;;;;;;;1.90;0.50;;;7.10;74.90;;;;;;5097906;28;20028;-68
2023/03/04 05:21:49;;;;;;;2.20;0.70;;;7.10;75.00;;;;;;5100103;28;20506;-69
2023/03/04 05:24:14;;;;;;;1.85;0.70;;;7.10;75.00;;;;;;5094926;28;20059;-69
2023/03/04 05:26:40;;;;;;;1.40;0.60;;;7.10;75.10;;;;;;5104423;28;20023;-68
2023/03/04 05:29:06;;;;;;;1.02;0.57;;;7.10;75.10;;;;;;5097355;28;20032;-68
2023/03/04 05:31:31;;;;;;;1.42;0.77;;;7.10;75.10;;;;;;5094787;28;20685;-69
2023/03/04 05:33:57;;;;;;;0.47;0.47;;;7.10;75.00;;;;;;5100296;28;20032;-69
2023/03/04 05:36:23;;;;;;;1.00;0.60;;;7.20;75.10;;;;;;5102248;28;20034;-69
2023/03/04 05:38:48;;;;;;;1.13;0.70;;;7.20;75.10;;;;;;5092971;28;20046;-69
2023/03/04 05:41:14;;;;;;;1.77;0.70;;;7.20;75.10;;;;;;5101172;28;20536;-68
2023/03/04 05:43:41;;;;;;;1.33;0.73;;;7.20;75.10;;;;;;5102434;28;20030;-68
2023/03/04 05:46:10;;;;;;;1.65;0.60;;;7.20;75.10;;;;;;5103930;28;20031;-68
2023/03/04 05:48:35;;;;;;;2.85;0.70;;;7.20;75.10;;;;;;5102400;27;20145;-69
2023/03/04 05:51:01;;;;;;;4.80;1.10;;;7.20;75.10;;;;;;5102945;28;20036;-69
2023/03/04 05:53:28;;;;;;;3.17;0.60;;;7.20;75.00;;;;;;5106418;27;20145;-69
2023/03/04 05:55:54;;;;;;;1.05;0.52;;;7.20;75.10;;;;;;5095573;28;20039;-69
2023/03/04 05:58:19;;;;;;;1.38;0.70;;;7.20;75.10;;;;;;5104384;28;20035;-69
2023/03/04 06:00:46;;;;;;;0.75;0.68;;;7.10;75.10;;;;;;5101100;28;20489;-68
2023/03/04 06:03:21;;;;;;;1.35;0.70;;;7.10;75.30;;;;;;5101748;28;20459;-68
2023/03/04 06:05:46;;;;;;;2.22;0.82;;;7.10;75.50;;;;;;5095877;28;20036;-69
2023/03/04 06:08:13;;;;;;;1.70;0.60;;;7.10;75.40;;;;;;5102792;28;20028;-69
2023/03/04 06:10:40;;;;;;;3.03;1.10;;;7.10;75.50;;;;;;5098038;28;20126;-68
2023/03/04 06:13:06;;;;;;;2.28;0.60;;;7.10;75.50;;;;;;5097782;28;20024;-68
2023/03/04 06:15:32;;;;;;;2.25;0.70;;;7.10;75.50;;;;;;5097935;27;20032;-68
2023/03/04 06:17:57;;;;;;;0.70;0.70;;;7.10;75.50;;;;;;5099487;28;20031;-68
2023/03/04 06:20:23;;;;;;;1.98;0.60;;;7.10;76.00;;;;;;5112379;27;20030;-68
2023/03/04 06:22:48;;;;;;;0.77;0.55;;;7.10;75.40;;;;;;5107323;27;20436;-68
2023/03/04 06:25:14;;;;;;;1.67;0.70;;;7.10;75.30;;;;;;5109511;27;20045;-69
2023/03/04 06:27:40;;;;;;;1.25;0.60;;;7.20;75.50;;;;;;5111979;27;20031;-68
2023/03/04 06:30:08;;;;;;;2.22;0.70;;;7.20;75.50;;;;;;5103829;27;20031;-68
2023/03/04 06:32:34;;;;;;;1.70;0.60;;;7.20;75.50;;;;;;5106544;27;20062;-68
2023/03/04 06:34:59;;;;;;;1.95;0.65;;;7.10;75.40;;;;;;5097786;28;20036;-68
2023/03/04 06:37:25;;;;;;;1.83;0.75;;;7.10;75.50;;;;;;5103514;27;20507;-68
2023/03/04 06:39:50;;;;;;;1.30;0.70;;;7.10;75.60;;;;;;5098320;27;20683;-68
2023/03/04 06:42:16;;;;;;;0.85;0.52;;;7.10;75.60;;;;;;5102493;27;20035;-68
2023/03/04 06:44:41;;;;;;;0.68;0.50;;;7.10;75.60;;;;;;5098727;27;20024;-68
2023/03/04 06:47:07;;;;;;;2.15;0.80;;;7.10;75.50;;;;;;5101525;27;20457;-68
2023/03/04 06:49:33;;;;;;;2.28;0.98;;;7.20;75.70;;;;;;5104722;27;20050;-68
2023/03/04 06:51:58;;;;;;;0.50;0.50;;;7.20;75.70;;;;;;5102569;27;20035;-68
2023/03/04 06:54:24;;;;;;;1.15;0.70;;;7.20;75.60;;;;;;5107358;27;20023;-68
2023/03/04 06:56:50;;;;;;;0.50;0.50;;;7.20;75.60;;;;;;5097465;28;20020;-68
2023/03/04 06:59:15;;;;;;;1.08;0.50;;;7.20;75.70;;;;;;5104763;28;20368;-68
2023/03/04 07:01:41;;;;;;;0.50;0.50;;;7.20;75.70;;;;;;5108100;27;20028;-68
2023/03/04 07:04:06;;;;;;;1.13;0.60;;;7.30;75.70;;;;;;5100666;27;20054;-68
2023/03/04 07:06:32;;;;;;;1.58;0.52;;;7.30;75.60;;;;;;5104790;28;20031;-68
2023/03/04 07:08:58;;;;;;;1.75;0.80;;;7.30;75.60;;;;;;5100743;27;20038;-68
2023/03/04 07:11:24;;;;;;;2.25;0.75;;;7.20;75.50;;;;;;5104244;27;20021;-68
2023/03/04 07:13:50;;;;;;;0.82;0.80;;;7.30;75.70;;;;;;5098494;27;20015;-68
2023/03/04 07:16:18;;;;;;;2.58;0.70;;;7.30;75.70;;;;;;5097029;28;20549;-68
2023/03/04 07:18:45;;;;;;;1.90;0.60;;;7.20;75.70;;;;;;5101617;27;20154;-68
2023/03/04 07:21:12;;;;;;;1.77;1.00;;;7.20;75.60;;;;;;5103272;27;20024;-68
2023/03/04 07:23:38;;;;;;;3.47;0.70;;;7.30;75.80;;;;;;5104293;27;20111;-69
2023/03/04 07:26:04;;;;;;;2.65;0.90;;;7.20;75.80;;;;;;5102343;28;20031;-68
2023/03/04 07:28:30;;;;;;;1.52;0.75;;;7.20;75.90;;;;;;5100866;28;20031;-68
2023/03/04 07:30:56;;;;;;;1.48;0.60;;;7.20;75.90;;;;;;5099363;27;20028;-68
2023/03/04 07:33:21;;;;;;;2.67;0.68;;;7.20;75.90;;;;;;5102018;27;20019;-68
2023/03/04 07:35:47;;;;;;;1.80;0.63;;;7.30;75.90;;;;;;5099672;28;20031;-69
2023/03/04 07:38:12;;;;;;;0.85;0.60;;;7.30;76.40;;;;;;5101684;27;20019;-67
2023/03/04 07:40:38;;;;;;;2.30;0.75;;;7.30;75.70;;;;;;5100972;27;20029;-67
2023/03/04 07:43:04;;;;;;;1.15;0.63;;;7.30;75.70;;;;;;5100309;28;20024;-67
2023/03/04 07:45:30;;;;;;;2.80;0.75;;;7.40;75.80;;;;;;5105621;27;20032;-67
2023/03/04 07:47:57;;;;;;;1.75;0.80;;;7.40;75.70;;;;;;5101054;28;20540;-67
2023/03/04 07:50:23;;;;;;;3.08;0.73;;;7.50;75.60;;;;;;5103624;27;20023;-68
2023/03/04 07:52:51;;;;;;;2.38;1.00;;;7.50;75.50;;;;;;5100909;27;20020;-68
2023/03/04 07:55:17;;;;;;;0.80;0.80;;;7.60;75.50;;;;;;5102849;27;20062;-68
2023/03/04 07:57:45;;;;;;;0.80;0.70;;;7.60;75.50;;;;;;5102039;28;20028;-68
2023/03/04 08:00:13;;;;;;;1.08;0.60;;;7.60;75.60;;;;;;5099260;27;20028;-68
2023/03/04 08:02:39;;;;;;;1.80;0.70;;;7.60;75.60;;;;;;5105506;27;20087;-68
2023/03/04 08:05:06;;;;;;;1.17;0.70;;;7.70;75.50;;;;;;5099151;28;20028;-68
2023/03/04 08:07:32;;;;;;;1.45;0.77;;;7.80;75.30;;;;;;5108380;27;20173;-67
2023/03/04 08:09:58;;;;;;;2.40;0.98;;;7.80;75.30;;;;;;5104469;27;20114;-67
2023/03/04 08:12:24;;;;;;;0.57;0.57;;;7.90;75.30;;;;;;5107002;27;20099;-68
2023/03/04 08:14:50;;;;;;;0.52;0.52;;;7.90;75.10;;;;;;5099200;28;20494;-67
2023/03/04 08:17:15;;;;;;;0.90;0.63;;;8.00;75.20;;;;;;5102513;27;20024;-66
2023/03/04 08:19:41;;;;;;;0.80;0.60;;;8.00;75.20;;;;;;5104159;27;20393;-68
2023/03/04 08:22:07;;;;;;;0.95;0.70;;;8.00;75.30;;;;;;5099857;28;20035;-68
2023/03/04 08:24:32;;;;;;;1.30;0.70;;;8.00;75.50;;;;;;5099630;28;20031;-68
2023/03/04 08:26:58;;;;;;;1.25;0.65;;;8.00;75.70;;;;;;5095498;27;20032;-67
2023/03/04 08:29:24;;;;;;;1.75;0.70;;;8.00;75.80;;;;;;5099242;27;20034;-68
2023/03/04 08:31:51;;;;;;;1.38;0.60;;;8.00;76.00;;;;;;5098277;28;20016;-67
2023/03/04 08:34:22;;;;;;;0.60;0.60;;;8.00;75.90;;;;;;5099048;27;20027;-68
2023/03/04 08:36:48;;;;;;;1.70;0.70;;;8.10;76.00;;;;;;5098351;28;20038;-68
2023/03/04 08:39:16;;;;;;;1.15;0.90;;;8.20;76.00;;;;;;5094810;27;20372;-67
2023/03/04 08:41:41;;;;;;;0.95;0.60;;;8.20;76.00;;;;;;5095696;28;20100;-68
2023/03/04 08:44:09;;;;;;;1.58;0.70;;;8.20;75.90;;;;;;5102513;27;20551;-67
2023/03/04 08:46:35;;;;;;;1.52;0.65;;;8.30;75.90;;;;;;5099391;27;20161;-67
2023/03/04 08:49:01;;;;;;;1.95;0.77;;;8.30;75.90;;;;;;5103744;27;20097;-67
2023/03/04 08:51:27;;;;;;;2.28;0.90;;;8.30;75.90;;;;;;5099073;28;20470;-67
2023/03/04 08:53:52;;;;;;;0.75;0.70;;;8.30;76.00;;;;;;5097763;27;20107;-67
2023/03/04 08:56:18;;;;;;;1.08;0.70;;;8.30;76.10;;;;;;5100896;28;20828;-67
2023/03/04 08:58:43;;;;;;;3.22;0.90;;;8.30;76.20;;;;;;5095251;28;20020;-67
2023/03/04 09:01:12;;;;;;;2.20;0.80;;;8.30;77.00;;;;;;5085021;28;20048;-67
2023/03/04 09:03:38;;;;;;;1.17;0.60;;;8.20;76.50;;;;;;5089223;28;20020;-67
2023/03/04 09:06:05;;;;;;;1.95;0.93;;;8.20;76.60;;;;;;5089844;28;20040;-68
2023/03/04 09:08:31;;;;;;;2.58;0.80;;;8.10;77.50;;;;;;5089554;28;20028;-66
2023/03/04 09:10:56;;;;;;;3.60;0.77;;;8.00;77.30;;;;;;5093652;28;20076;-67
2023/03/04 09:13:23;;;;;;;1.67;0.88;;;8.00;77.50;;;;;;5099094;28;20028;-67
2023/03/04 09:15:51;;;;;;;0.73;0.73;;;8.00;77.50;;;;;;5100699;27;20026;-67
2023/03/04 09:18:18;;;;;;;0.93;0.60;;;8.00;77.60;;;;;;5101127;28;20383;-68
2023/03/04 09:20:44;;;;;;;1.60;0.70;;;8.00;77.80;;;;;;5103775;28;20111;-67
2023/03/04 09:23:11;;;;;;;0.90;0.60;;;8.00;77.90;;;;;;5098621;28;20028;-68
2023/03/04 09:25:37;;;;;;;1.17;0.63;;;8.00;77.90;;;;;;5096402;28;20792;-68
2023/03/04 09:28:04;;;;;;;1.25;0.73;;;8.10;77.80;;;;;;5098427;28;20058;-68
2023/03/04 09:30:29;;;;;;;1.23;0.70;;;8.20;77.70;;;;;;5099977;28;21569;-67
2023/03/04 09:32:56;;;;;;;0.50;0.50;;;8.30;77.60;;;;;;5099837;28;20019;-68
2023/03/04 09:35:21;;;;;;;0.50;0.50;;;8.40;77.60;;;;;;5100952;28;20031;-68
2023/03/04 09:37:48;;;;;;;0.63;0.60;;;8.40;77.40;;;;;;5097113;27;20449;-67
2023/03/04 09:40:20;;;;;;;1.85;0.80;;;8.50;77.40;;;;;;5103873;28;20039;-68
2023/03/04 09:42:50;;;;;;;0.77;0.77;;;8.50;77.50;;;;;;5102076;28;20028;-67
2023/03/04 09:45:20;;;;;;;0.77;0.77;;;8.40;77.60;;;;;;5106677;28;20040;-67
2023/03/04 09:47:51;;;;;;;0.80;0.70;;;8.30;77.90;;;;;;5097582;28;20107;-67
2023/03/04 09:50:18;;;;;;;0.70;0.70;;;8.40;78.10;;;;;;5099969;28;20520;-68
2023/03/04 09:53:00;;;;;;;0.70;0.70;;;8.50;78.20;;;;;;5100361;28;20493;-67
2023/03/04 09:55:34;;;;;;;1.20;0.60;;;8.60;78.00;;;;;;5102750;27;20107;-68
2023/03/04 09:58:24;;;;;;;0.75;0.70;;;8.60;77.90;;;;;;5102296;27;20118;-68
2023/03/04 10:01:00;;;;;;;1.83;0.70;;;8.60;78.00;;;;;;5097805;27;20501;-67
2023/03/04 10:03:47;;;;;;;1.27;0.70;;;8.60;78.10;;;;;;5094728;28;20620;-67
2023/03/04 10:06:20;;;;;;;0.55;0.55;;;8.70;78.20;;;;;;5097679;28;20440;-67
2023/03/04 10:09:00;;;;;;;1.85;0.77;;;8.80;78.30;;;;;;5102126;28;20024;-67
2023/03/04 10:11:46;;;;;;;0.63;0.63;;;8.70;78.20;;;;;;5106318;27;20027;-67
2023/03/04 10:14:21;;;;;;;0.65;0.65;;;8.70;78.70;;;;;;5102268;27;20047;-68
2023/03/04 10:17:06;;;;;;;0.75;0.50;;;8.80;78.80;;;;;;5102057;28;20028;-67
2023/03/04 10:19:37;;;;;;;0.70;0.60;;;8.80;78.70;;;;;;5100974;28;20024;-68
2023/03/04 10:22:34;;;;;;;0.60;0.60;;;8.80;78.60;;;;;;5101772;28;20032;-67
2023/03/04 10:25:16;;;;;;;0.73;0.63;;;8.90;78.60;;;;;;5102013;28;20040;-67
2023/03/04 10:27:47;;;;;;;0.80;0.68;;;8.90;79.30;;;;;;5100734;28;20072;-67
2023/03/04 10:30:39;;;;;;;0.90;0.63;;;8.90;78.70;;;;;;5102818;27;20055;-67
2023/03/04 10:33:12;;;;;;;2.30;0.70;;;8.90;78.80;;;;;;5098489;27;20034;-67
2023/03/04 10:35:37;;;;;;;1.70;0.70;;;8.90;78.80;;;;;;5103866;28;20039;-67
2023/03/04 10:38:05;;;;;;;1.20;0.70;;;8.80;78.80;;;;;;5097196;28;20051;-67
2023/03/04 10:40:37;;;;;;;3.67;1.73;;;8.80;78.90;;;;;;5099041;28;20715;-66
2023/03/04 10:43:06;;;;;;;1.75;1.08;;;8.80;79.10;;;;;;5097490;28;20051;-68
2023/03/04 10:45:38;;;;;;;1.35;1.25;;;8.80;79.20;;;;;;5102290;27;20047;-67
2023/03/04 10:48:04;;;;;;;1.05;0.90;;;8.80;79.30;;;;;;5101501;27;20032;-67
2023/03/04 10:50:31;;;;;;;1.50;1.20;;;8.80;79.40;;;;;;5103644;28;20400;-68
2023/03/04 10:52:57;;;;;;;1.83;1.10;;;8.80;79.50;;;;;;5103208;27;20035;-67
2023/03/04 10:55:27;;;;;;;1.35;0.95;;;8.80;79.50;;;;;;5102904;28;20099;-68
2023/03/04 10:58:04;;;;;;;1.23;0.98;;;8.90;79.60;;;;;;5103433;28;20106;-67
2023/03/04 11:00:37;;;;;;;1.13;0.80;;;8.90;79.60;;;;;;5103373;28;20062;-67
2023/03/04 11:03:22;;;;;;;2.88;0.93;;;8.90;79.60;;;;;;5100304;28;20098;-68
2023/03/04 11:05:48;;;;;;;1.60;0.80;;;9.00;79.70;;;;;;5097173;28;20035;-67
2023/03/04 11:08:19;;;;;;;1.98;0.90;;;9.00;79.60;;;;;;5101032;27;20767;-67
2023/03/04 11:10:45;;;;;;;1.48;1.10;;;9.00;79.40;;;;;;5096660;27;20174;-66
2023/03/04 11:13:14;;;;;;;0.80;0.80;;;9.10;79.40;;;;;;5102321;27;20031;-67
2023/03/04 11:15:55;;;;;;;1.92;0.98;;;9.10;79.50;;;;;;5098443;28;21362;-66
2023/03/04 11:18:45;;;;;;;0.85;0.80;;;9.20;79.50;;;;;;5104398;27;20038;-67
2023/03/04 11:21:16;;;;;;;0.85;0.80;;;9.30;79.60;;;;;;5111699;27;20114;-67
2023/03/04 11:24:03;;;;;;;1.80;0.80;;;9.40;79.50;;;;;;5107893;27;20030;-66
2023/03/04 11:26:44;;;;;;;0.60;0.60;;;9.50;79.20;;;;;;5109553;27;20027;-66
2023/03/04 11:29:28;;;;;;;0.93;0.60;;;9.50;79.20;;;;;;5100886;27;20012;-67
2023/03/04 11:32:17;;;;;;;1.80;0.70;;;9.60;79.00;;;;;;5100186;28;20019;-67
2023/03/04 11:35:12;;;;;;;0.90;0.90;;;9.80;78.90;;;;;;5104176;27;20084;-67
2023/03/04 11:38:03;;;;;;;1.33;0.88;;;9.90;78.60;;;;;;5104522;27;20047;-66
2023/03/04 11:40:42;;;;;;;2.63;1.33;;;9.90;78.40;;;;;;5098963;27;20576;-67
2023/03/04 11:43:36;;;;;;;1.38;1.27;;;9.80;78.30;;;;;;5107125;27;20028;-67
2023/03/04 11:46:30;;;;;;;0.80;0.80;;;9.80;78.40;;;;;;5106340;27;20047;-67
2023/03/04 11:49:14;;;;;;;0.77;0.77;;;9.80;78.40;;;;;;5101390;27;20032;-67
2023/03/04 11:52:01;;;;;;;1.15;0.60;;;9.80;78.30;;;;;;5101584;27;20056;-67
2023/03/04 11:54:43;;;;;;;0.80;0.77;;;9.80;78.50;;;;;;5101133;27;20436;-66
2023/03/04 11:57:42;;;;;;;0.90;0.80;;;9.80;78.30;;;;;;5105514;27;20037;-67
2023/03/04 12:00:23;;;;;;;1.05;0.73;;;9.80;78.40;;;;;;5101608;27;20102;-66
2023/03/04 12:03:42;;;;;;;2.25;0.70;;;9.60;78.40;;;;;;5098707;28;20024;-67
2023/03/04 12:06:23;;;;;;;0.60;0.60;;;9.50;78.80;;;;;;5102582;27;20048;-66
2023/03/04 12:09:07;;;;;;;0.63;0.63;;;9.40;79.10;;;;;;5105713;28;20024;-67
2023/03/04 12:11:54;;;;;;;1.88;1.05;;;9.40;79.40;;;;;;5105014;27;20032;-66
2023/03/04 12:14:40;;;;;;;0.80;0.80;;;9.50;79.50;;;;;;5101475;27;20112;-66
2023/03/04 12:17:25;;;;;;;0.73;0.70;;;9.70;79.40;;;;;;5101511;27;20032;-67
2023/03/04 12:19:53;;;;;;;0.50;0.50;;;9.70;79.20;;;;;;5105933;27;20771;-66
2023/03/04 12:22:29;;;;;;;0.63;0.63;;;9.90;79.20;;;;;;5102323;27;20047;-66
2023/03/04 12:25:39;;;;;;;2.38;0.93;;;10.00;78.90;;;;;;5108648;27;20050;-66
2023/03/04 12:28:20;;;;;;;0.77;0.70;;;10.00;78.80;;;;;;5100918;27;20398;-67
2023/03/04 12:31:05;;;;;;;0.60;0.60;;;10.00;78.90;;;;;;5104162;27;20032;-67
2023/03/04 12:33:40;;;;;;;0.60;0.60;;;9.90;79.00;;;;;;5104897;27;20019;-66
2023/03/04 12:36:47;;;;;;;2.15;1.00;;;9.80;79.20;;;;;;5101018;27;20028;-67
2023/03/04 12:39:18;;;;;;;1.38;0.98;;;9.70;79.60;;;;;;5081628;27;20047;-66
2023/03/04 12:41:51;;;;;;;1.30;1.08;;;9.60;79.50;;;;;;5101710;27;20019;-67
2023/03/04 12:44:20;;;;;;;1.05;0.82;;;9.40;79.80;;;;;;5099305;27;20020;-67
2023/03/04 12:47:10;;;;;;;2.40;1.10;;;9.20;80.00;;;;;;5103658;27;20023;-66
2023/03/04 12:49:51;;;;;;;2.63;0.80;;;9.10;80.10;;;;;;5104120;27;20058;-67
2023/03/04 12:52:28;;;;;;;1.02;0.70;;;9.10;80.20;;;;;;5106298;27;20029;-67
2023/03/04 12:55:17;;;;;;;1.55;0.60;;;9.00;80.20;;;;;;5103616;27;20016;-66
2023/03/04 12:57:44;;;;;;;1.35;0.68;;;9.00;80.20;;;;;;5100487;28;20035;-67
2023/03/04 13:00:42;;;;;;;2.17;0.77;;;9.00;80.10;;;;;;5105108;28;20024;-66
2023/03/04 13:03:24;;;;;;;1.88;0.80;;;9.10;80.10;;;;;;5106515;27;20078;-68
2023/03/04 13:05:50;;;;;;;2.50;0.70;;;9.10;79.90;;;;;;5095847;28;20027;-65
2023/03/04 13:08:24;;;;;;;1.65;0.80;;;9.30;79.90;;;;;;5101029;28;20032;-65
2023/03/04 13:10:51;;;;;;;1.00;0.90;;;9.30;79.40;;;;;;5103700;27;20039;-66